createdAt,value
2022-08-17T00:00:43.532Z,85.31
2022-08-17T00:03:55.787Z,85.44
2022-08-17T00:06:59.448Z,85.31
2022-08-17T00:10:03.133Z,85.59
2022-08-17T00:13:11.221Z,85.69
2022-08-17T00:16:19.892Z,86.06
2022-08-17T00:19:27.327Z,85.97
2022-08-17T00:22:35.760Z,86.33
2022-08-17T00:25:43.514Z,86.64
2022-08-17T00:28:47.773Z,86.84
2022-08-17T00:31:51.798Z,87.10
2022-08-17T00:34:56.892Z,87.41
2022-08-17T00:38:00.547Z,87.81
2022-08-17T00:41:09.219Z,88.19
2022-08-17T00:44:13.165Z,88.36
2022-08-17T00:47:16.870Z,88.91
2022-08-17T00:50:22.022Z,89.10
2022-08-17T00:53:26.950Z,89.44
2022-08-17T00:56:37.738Z,89.41
2022-08-17T01:00:01.582Z,89.80
2022-08-17T01:03:13.013Z,90.25
2022-08-17T01:06:18.451Z,90.45
2022-08-17T01:09:22.948Z,90.50
2022-08-17T01:12:26.658Z,90.94
2022-08-17T01:15:31.652Z,90.99
2022-08-17T01:18:36.968Z,91.16
2022-08-17T01:21:51.280Z,91.37
2022-08-17T01:25:01.653Z,91.38
2022-08-17T01:28:06.140Z,91.53
2022-08-17T01:31:11.087Z,91.87
2022-08-17T01:34:18.377Z,91.81
2022-08-17T01:37:32.263Z,92.07
2022-08-17T01:40:40.776Z,92.38
2022-08-17T01:43:52.178Z,92.28
2022-08-17T01:46:56.108Z,92.57
2022-08-17T01:49:59.801Z,92.61
2022-08-17T01:53:08.061Z,92.88
2022-08-17T01:56:17.266Z,93.06
2022-08-17T01:59:22.483Z,93.44
2022-08-17T02:02:30.672Z,93.73
2022-08-17T02:05:35.254Z,94.05
2022-08-17T02:09:01.469Z,94.26
2022-08-17T02:12:38.103Z,94.38
2022-08-17T02:15:28.691Z,94.63
2022-08-17T02:18:32.369Z,94.71
2022-08-17T02:21:37.917Z,94.68
2022-08-17T02:25:00.160Z,94.82
2022-08-17T02:28:06.929Z,94.96
2022-08-17T02:31:13.099Z,95.03
2022-08-17T02:34:17.064Z,95.12
2022-08-17T02:37:20.847Z,95.20
2022-08-17T02:40:35.880Z,95.44
2022-08-17T02:43:42.482Z,95.54
2022-08-17T02:46:46.129Z,95.88
2022-08-17T02:49:54.281Z,96.18
2022-08-17T02:53:02.479Z,96.17
2022-08-17T02:56:06.737Z,96.41
2022-08-17T02:59:11.711Z,96.74
2022-08-17T03:02:15.419Z,96.38
2022-08-17T03:05:22.105Z,96.86
2022-08-17T03:08:25.779Z,96.90
2022-08-17T03:11:29.403Z,96.97
2022-08-17T03:14:37.029Z,96.91
2022-08-17T03:17:45.009Z,97.19
2022-08-17T03:20:48.930Z,97.36
2022-08-17T03:23:54.352Z,97.30
2022-08-17T03:26:58.416Z,97.36
2022-08-17T03:30:04.040Z,97.62
2022-08-17T03:33:11.186Z,97.77
2022-08-17T03:36:15.111Z,97.79
2022-08-17T03:39:18.852Z,98.06
2022-08-17T03:42:32.053Z,97.99
2022-08-17T03:45:56.626Z,98.11
2022-08-17T03:49:17.789Z,98.27
2022-08-17T03:52:38.884Z,98.26
2022-08-17T03:56:00.373Z,98.48
2022-08-17T03:59:04.006Z,98.41
2022-08-17T04:02:14.160Z,98.58
2022-08-17T04:05:17.820Z,98.54
2022-08-17T04:08:21.392Z,98.59
2022-08-17T04:11:25.010Z,98.64
2022-08-17T04:14:31.224Z,98.66
2022-08-17T04:17:36.293Z,98.57
2022-08-17T04:20:39.858Z,98.58
2022-08-17T04:23:43.587Z,98.68
2022-08-17T04:26:52.861Z,98.64
2022-08-17T04:29:58.650Z,98.68
2022-08-17T04:33:09.781Z,98.75
2022-08-17T04:36:16.742Z,98.79
2022-08-17T04:39:20.312Z,98.68
2022-08-17T04:42:23.019Z,98.75
2022-08-17T04:45:34.052Z,98.53
2022-08-17T04:48:43.770Z,98.22
2022-08-17T04:51:56.133Z,98.34
2022-08-17T04:55:05.369Z,98.10
2022-08-17T04:58:10.520Z,97.83
2022-08-17T05:01:14.436Z,97.57
2022-08-17T05:04:33.892Z,97.41
2022-08-17T05:07:39.009Z,97.54
2022-08-17T05:10:45.231Z,97.11
2022-08-17T05:13:50.795Z,96.97
2022-08-17T05:16:54.387Z,96.59
2022-08-17T05:19:59.364Z,96.30
2022-08-17T05:23:08.003Z,95.87
2022-08-17T05:26:26.153Z,95.34
2022-08-17T05:29:33.642Z,95.53
2022-08-17T05:32:40.497Z,94.41
2022-08-17T05:35:49.054Z,93.79
2022-08-17T05:38:52.697Z,93.17
2022-08-17T05:41:56.247Z,92.34
2022-08-17T05:45:00.226Z,91.76
2022-08-17T05:48:04.467Z,90.74
2022-08-17T05:51:37.859Z,90.21
2022-08-17T05:55:04.122Z,88.95
2022-08-17T05:58:23.752Z,87.88
2022-08-17T06:01:42.327Z,86.75
2022-08-17T06:05:11.244Z,85.64
2022-08-17T06:08:33.474Z,84.70
2022-08-17T06:11:46.755Z,83.68
2022-08-17T06:15:14.952Z,82.08
2022-08-17T06:18:24.537Z,81.77
2022-08-17T06:21:34.560Z,81.06
2022-08-17T06:24:47.719Z,80.72
2022-08-17T06:27:56.973Z,80.20
2022-08-17T06:31:09.017Z,80.61
2022-08-17T06:34:14.500Z,80.50
2022-08-17T06:37:43.521Z,80.34
2022-08-17T06:41:07.172Z,80.37
2022-08-17T06:44:42.243Z,79.66
2022-08-17T06:47:54.080Z,79.12
2022-08-17T06:51:06.867Z,78.92
2022-08-17T06:54:24.627Z,78.19
2022-08-17T06:57:33.462Z,77.32
2022-08-17T07:00:43.109Z,76.04
2022-08-17T07:03:56.136Z,74.89
2022-08-17T07:07:26.179Z,73.77
2022-08-17T07:10:39.083Z,72.70
2022-08-17T07:13:55.079Z,72.93
2022-08-17T07:17:04.035Z,72.67
2022-08-17T07:20:12.878Z,73.14
2022-08-17T07:23:34.020Z,73.62
2022-08-17T07:26:38.902Z,73.40
2022-08-17T07:29:51.345Z,72.91
2022-08-17T07:32:59.504Z,72.85
2022-08-17T07:36:03.300Z,72.36
2022-08-17T07:39:07.126Z,72.55
2022-08-17T07:42:12.225Z,71.63
2022-08-17T07:45:31.184Z,71.52
2022-08-17T07:48:39.837Z,69.92
2022-08-17T07:52:47.388Z,70.01
2022-08-17T07:55:35.023Z,68.67
2022-08-17T07:58:38.736Z,67.36
2022-08-17T08:01:49.714Z,67.71
2022-08-17T08:05:09.038Z,66.18
2022-08-17T08:08:29.650Z,66.32
2022-08-17T08:11:38.344Z,64.64
2022-08-17T08:14:56.686Z,63.10
2022-08-17T08:18:04.296Z,62.05
2022-08-17T08:21:18.434Z,61.55
2022-08-17T08:24:53.497Z,60.73
2022-08-17T08:28:16.147Z,58.58
2022-08-17T08:31:44.916Z,58.37
2022-08-17T08:35:04.850Z,57.23
2022-08-17T08:38:29.314Z,56.79
2022-08-17T08:41:44.925Z,56.11
2022-08-17T08:45:04.655Z,55.65
2022-08-17T08:48:52.945Z,55.16
2022-08-17T08:51:56.927Z,53.39
2022-08-17T08:55:10.319Z,52.75
2022-08-17T08:58:31.498Z,51.75
2022-08-17T09:02:00.978Z,50.34
2022-08-17T09:05:26.787Z,50.57
2022-08-17T09:08:57.172Z,50.08
2022-08-17T09:12:10.126Z,48.20
2022-08-17T09:15:21.579Z,47.25
2022-08-17T09:19:00.247Z,46.63
2022-08-17T09:21:59.967Z,44.65
2022-08-17T09:25:13.232Z,45.07
2022-08-17T09:28:21.628Z,44.80
2022-08-17T09:31:41.890Z,46.07
2022-08-17T09:34:56.144Z,45.59
2022-08-17T09:38:12.807Z,47.06
2022-08-17T09:41:25.461Z,46.78
2022-08-17T09:44:39.728Z,46.01
2022-08-17T09:47:55.106Z,46.82
2022-08-17T09:51:08.767Z,45.97
2022-08-17T09:54:44.683Z,46.25
2022-08-17T09:58:00.988Z,45.21
2022-08-17T10:01:29.219Z,45.53
2022-08-17T10:04:50.685Z,46.06
2022-08-17T10:08:09.446Z,45.57
2022-08-17T10:11:48.429Z,45.50
2022-08-17T10:15:22.578Z,46.03
2022-08-17T10:18:48.307Z,46.03
2022-08-17T10:22:35.091Z,45.23
2022-08-17T10:26:04.541Z,44.28
2022-08-17T10:29:21.177Z,42.90
2022-08-17T10:32:41.625Z,43.33
2022-08-17T10:35:57.129Z,43.45
2022-08-17T10:39:19.479Z,42.65
2022-08-17T10:42:33.006Z,43.25
2022-08-17T10:46:10.616Z,43.24
2022-08-17T10:49:34.434Z,44.34
2022-08-17T10:52:50.194Z,44.40
2022-08-17T10:56:23.735Z,45.63
2022-08-17T10:59:51.912Z,45.31
2022-08-17T11:02:58.035Z,44.40
2022-08-17T11:06:23.232Z,43.72
2022-08-17T11:09:44.915Z,43.36
2022-08-17T11:13:14.049Z,42.92
2022-08-17T11:16:45.804Z,44.17
2022-08-17T11:20:14.222Z,44.33
2022-08-17T11:24:14.752Z,44.21
2022-08-17T11:27:29.976Z,43.28
2022-08-17T11:30:52.275Z,43.27
2022-08-17T11:34:05.720Z,42.04
2022-08-17T11:37:47.717Z,42.83
2022-08-17T11:41:19.951Z,41.40
2022-08-17T11:44:41.044Z,39.80
2022-08-17T11:48:29.235Z,39.15
2022-08-17T11:52:15.849Z,37.88
2022-08-17T11:56:06.692Z,37.28
2022-08-17T11:59:55.189Z,36.42
2022-08-17T12:03:23.674Z,37.63
2022-08-17T12:06:47.933Z,36.90
2022-08-17T12:09:53.647Z,36.51
2022-08-17T12:13:00.097Z,35.84
2022-08-17T12:16:04.828Z,36.02
2022-08-17T12:19:21.670Z,36.09
2022-08-17T12:22:33.699Z,36.81
2022-08-17T12:25:45.231Z,36.96
2022-08-17T12:28:58.380Z,35.39
2022-08-17T12:32:04.879Z,34.91
2022-08-17T12:35:22.568Z,35.40
2022-08-17T12:38:32.568Z,35.86
2022-08-17T12:41:44.449Z,37.52
2022-08-17T12:44:50.221Z,36.68
2022-08-17T12:48:04.200Z,36.73
2022-08-17T12:51:08.989Z,36.72
2022-08-17T12:54:26.828Z,36.81
2022-08-17T12:57:35.332Z,37.01
2022-08-17T13:00:48.665Z,35.53
2022-08-17T13:03:59.809Z,36.19
2022-08-17T13:07:03.598Z,36.46
2022-08-17T13:10:08.001Z,35.82
2022-08-17T13:13:27.002Z,35.16
2022-08-17T13:16:33.432Z,35.23
2022-08-17T13:19:45.901Z,34.75
2022-08-17T13:22:57.923Z,33.75
2022-08-17T13:26:07.985Z,33.91
2022-08-17T13:29:24.958Z,34.71
2022-08-17T13:32:43.699Z,35.13
2022-08-17T13:35:50.474Z,35.30
2022-08-17T13:39:08.939Z,35.95
2022-08-17T13:42:33.092Z,36.61
2022-08-17T13:45:50.721Z,37.39
2022-08-17T13:49:06.807Z,37.22
2022-08-17T13:52:34.635Z,37.60
2022-08-17T13:55:38.332Z,37.90
2022-08-17T13:58:55.650Z,37.52
2022-08-17T14:01:59.654Z,37.52
2022-08-17T14:05:06.465Z,37.58
2022-08-17T14:08:15.339Z,37.58
2022-08-17T14:11:19.841Z,38.20
2022-08-17T14:14:24.545Z,38.25
2022-08-17T14:17:34.974Z,37.06
2022-08-17T14:20:43.685Z,38.32
2022-08-17T14:23:54.318Z,38.18
2022-08-17T14:27:00.796Z,37.52
2022-08-17T14:30:07.802Z,37.12
2022-08-17T14:33:11.525Z,37.07
2022-08-17T14:36:16.538Z,37.45
2022-08-17T14:39:21.499Z,37.75
2022-08-17T14:42:27.069Z,37.85
2022-08-17T14:45:33.215Z,37.40
2022-08-17T14:48:38.875Z,37.31
2022-08-17T14:51:44.636Z,37.75
2022-08-17T14:54:48.737Z,38.04
2022-08-17T14:57:52.550Z,38.36
2022-08-17T15:00:56.498Z,38.67
2022-08-17T15:04:01.013Z,39.09
2022-08-17T15:07:06.528Z,39.43
2022-08-17T15:10:10.967Z,39.07
2022-08-17T15:13:22.405Z,38.97
2022-08-17T15:16:27.059Z,39.33
2022-08-17T15:19:30.891Z,39.51
2022-08-17T15:22:36.127Z,39.39
2022-08-17T15:25:39.804Z,40.13
2022-08-17T15:28:43.472Z,40.50
2022-08-17T15:31:51.990Z,40.25
2022-08-17T15:34:57.707Z,40.27
2022-08-17T15:38:11.742Z,40.12
2022-08-17T15:41:18.850Z,40.40
2022-08-17T15:44:22.540Z,40.63
2022-08-17T15:47:37.015Z,40.76
2022-08-17T15:50:41.029Z,40.26
2022-08-17T15:53:49.151Z,40.18
2022-08-17T15:56:52.746Z,40.88
2022-08-17T15:59:58.918Z,42.13
2022-08-17T16:03:45.086Z,44.58
2022-08-17T16:06:27.844Z,46.41
2022-08-17T16:09:32.835Z,45.97
2022-08-17T16:12:37.368Z,46.34
2022-08-17T16:16:00.913Z,46.71
2022-08-17T16:19:04.813Z,46.69
2022-08-17T16:22:12.148Z,46.69
2022-08-17T16:25:20.692Z,47.00
2022-08-17T16:28:35.997Z,46.87
2022-08-17T16:31:41.794Z,46.76
2022-08-17T16:38:07.029Z,46.63
2022-08-17T16:41:12.710Z,46.53
2022-08-17T16:44:22.917Z,46.46
2022-08-17T16:47:27.084Z,46.23
2022-08-17T16:50:31.984Z,46.52
2022-08-17T16:53:35.584Z,46.68
2022-08-17T16:56:40.586Z,46.63
2022-08-17T16:59:47.978Z,46.83
2022-08-17T17:02:51.863Z,46.64
2022-08-17T17:06:13.749Z,47.08
2022-08-17T17:09:28.548Z,46.65
2022-08-17T17:12:59.613Z,47.01
2022-08-17T17:16:21.656Z,48.24
2022-08-17T17:19:35.627Z,49.29
2022-08-17T17:22:49.904Z,50.60
2022-08-17T17:26:06.720Z,53.14
2022-08-17T17:29:46.460Z,54.21
2022-08-17T17:33:00.152Z,54.35
2022-08-17T17:36:16.484Z,54.87
2022-08-17T17:39:33.431Z,56.90
2022-08-17T17:42:41.725Z,60.08
2022-08-17T17:45:57.631Z,62.21
2022-08-17T17:49:14.202Z,63.53
2022-08-17T17:52:27.527Z,64.15
2022-08-17T17:55:44.544Z,63.89
2022-08-17T17:59:02.639Z,63.00
2022-08-17T18:02:44.675Z,62.10
2022-08-17T18:06:09.849Z,61.94
2022-08-17T18:09:34.005Z,61.90
2022-08-17T18:12:46.908Z,62.11
2022-08-17T18:15:54.699Z,62.91
2022-08-17T18:19:00.761Z,63.59
2022-08-17T18:22:13.093Z,64.24
2022-08-17T18:25:43.618Z,64.85
2022-08-17T18:28:52.934Z,65.83
2022-08-17T18:32:34.400Z,66.44
2022-08-17T18:35:39.411Z,67.29
2022-08-17T18:38:44.935Z,68.10
2022-08-17T18:41:53.079Z,68.70
2022-08-17T18:44:57.264Z,69.30
2022-08-17T18:48:01.786Z,69.76
2022-08-17T18:51:40.952Z,70.02
2022-08-17T18:55:10.013Z,70.54
2022-08-17T18:58:19.810Z,71.18
2022-08-17T19:01:52.314Z,71.77
2022-08-17T19:05:10.026Z,71.85
2022-08-17T19:08:25.722Z,72.29
2022-08-17T19:11:33.957Z,73.20
2022-08-17T19:14:38.353Z,73.94
2022-08-17T19:17:51.650Z,74.69
2022-08-17T19:21:05.017Z,75.49
2022-08-17T19:24:19.492Z,75.76
2022-08-17T19:27:41.906Z,76.31
2022-08-17T19:30:51.244Z,76.76
2022-08-17T19:33:56.943Z,77.04
2022-08-17T19:37:08.973Z,77.56
2022-08-17T19:40:51.098Z,77.91
2022-08-17T19:44:47.205Z,78.09
2022-08-17T19:48:14.954Z,78.27
2022-08-17T19:51:31.588Z,78.41
2022-08-17T19:54:47.329Z,78.34
2022-08-17T19:58:04.587Z,78.56
2022-08-17T20:01:13.391Z,78.43
2022-08-17T20:04:33.999Z,79.10
2022-08-17T20:07:51.830Z,79.96
2022-08-17T20:11:01.424Z,80.62
2022-08-17T20:14:14.533Z,81.02
2022-08-17T20:17:18.656Z,81.74
2022-08-17T20:20:32.305Z,82.28
2022-08-17T20:23:53.522Z,82.49
2022-08-17T20:27:02.120Z,82.52
2022-08-17T20:30:12.109Z,82.67
2022-08-17T20:33:28.239Z,83.57
2022-08-17T20:36:36.839Z,83.54
2022-08-17T20:39:44.619Z,84.06
2022-08-17T20:42:48.523Z,84.65
2022-08-17T20:46:16.808Z,84.90
2022-08-17T20:49:28.281Z,85.65
2022-08-17T20:52:58.198Z,85.85
2022-08-17T20:56:01.719Z,85.75
2022-08-17T20:59:05.473Z,86.05
2022-08-17T21:02:21.068Z,86.16
2022-08-17T21:05:34.546Z,86.73
2022-08-17T21:08:45.890Z,87.36
2022-08-17T21:12:05.470Z,87.66
2022-08-17T21:15:37.020Z,88.10
2022-08-17T21:18:57.277Z,89.17
2022-08-17T21:22:22.558Z,89.60
2022-08-17T21:25:52.934Z,89.75
2022-08-17T21:29:31.489Z,90.00
2022-08-17T21:32:40.494Z,90.65
2022-08-17T21:35:58.694Z,90.74
2022-08-17T21:39:11.605Z,91.16
2022-08-17T21:42:15.452Z,91.38
2022-08-17T21:45:31.750Z,91.62
2022-08-17T21:48:45.799Z,91.62
2022-08-17T21:51:57.169Z,91.53
2022-08-17T21:55:03.315Z,91.85
2022-08-17T21:58:28.920Z,91.92
2022-08-17T22:01:36.052Z,92.05
2022-08-17T22:04:42.656Z,91.77
2022-08-17T22:08:00.043Z,91.81
2022-08-17T22:11:03.967Z,91.97
2022-08-17T22:14:18.589Z,91.94
2022-08-17T22:17:28.135Z,92.01
2022-08-17T22:20:31.953Z,91.96
2022-08-17T22:24:00.045Z,92.04
2022-08-17T22:27:10.474Z,91.96
2022-08-17T22:30:36.488Z,91.54
2022-08-17T22:33:45.644Z,91.46
2022-08-17T22:36:49.275Z,91.42
2022-08-17T22:40:00.767Z,91.53
2022-08-17T22:43:05.070Z,91.32
2022-08-17T22:46:11.739Z,91.36
2022-08-17T22:49:27.379Z,91.21
2022-08-17T22:52:35.803Z,91.32
2022-08-17T22:56:09.920Z,91.06
2022-08-17T22:59:23.563Z,90.70
2022-08-17T23:02:31.967Z,90.73
2022-08-17T23:05:36.332Z,90.87
2022-08-17T23:08:49.212Z,91.05
2022-08-17T23:11:58.778Z,90.73
2022-08-17T23:15:03.816Z,90.68
2022-08-17T23:18:08.201Z,90.95
2022-08-17T23:21:13.497Z,91.13
2022-08-17T23:24:33.151Z,91.15
2022-08-17T23:27:38.104Z,91.35
2022-08-17T23:30:46.579Z,91.39
2022-08-17T23:33:51.179Z,91.18
2022-08-17T23:36:55.128Z,91.48
2022-08-17T23:39:58.771Z,91.36
2022-08-17T23:43:17.410Z,91.21
2022-08-17T23:46:28.776Z,91.15
2022-08-17T23:49:33.383Z,90.90
2022-08-17T23:52:38.625Z,90.86
2022-08-17T23:55:42.497Z,90.57
2022-08-17T23:58:47.721Z,90.54
